Time;durP1;ratioP1;P1;durP2;ratioP2;P2;SDS_P1;SDS_P2;PMS_P1;PMS_P2;Temp;Humidity;BMP_temperature;BMP_pressure;BME280_temperature;BME280_humidity;BME280_pressure;Samples;Min_cycle;Max_cycle;Signal;HPM_P1;HPM_P2
2023/12/13 00:02:25;;;;;;;125.68;56.33;;;16.10;74.00;;;;;;5051012;28;20037;-47
2023/12/13 00:04:50;;;;;;;125.00;56.60;;;16.10;74.00;;;;;;5042472;28;20043;-47
2023/12/13 00:07:16;;;;;;;125.68;56.90;;;16.10;74.00;;;;;;5051869;28;20060;-48
2023/12/13 00:09:42;;;;;;;127.18;56.47;;;16.10;73.90;;;;;;5046872;28;20056;-47
2023/12/13 00:12:08;;;;;;;126.47;56.35;;;16.10;74.00;;;;;;5043091;28;20172;-47
2023/12/13 00:14:33;;;;;;;124.78;56.03;;;16.10;74.10;;;;;;5043652;28;20092;-45
2023/12/13 00:16:59;;;;;;;125.53;56.45;;;16.10;74.10;;;;;;5047815;28;20041;-47
2023/12/13 00:19:25;;;;;;;128.02;56.78;;;16.10;74.00;;;;;;5050083;28;20045;-47
2023/12/13 00:21:50;;;;;;;124.93;56.63;;;16.10;74.00;;;;;;5050469;28;20091;-47
2023/12/13 00:24:16;;;;;;;126.28;56.40;;;16.10;74.00;;;;;;5048403;28;20049;-47
2023/12/13 00:26:41;;;;;;;126.35;55.75;;;16.10;74.00;;;;;;5044417;28;20037;-47
2023/12/13 00:29:08;;;;;;;126.25;56.13;;;16.10;74.00;;;;;;5044004;28;20045;-47
2023/12/13 00:31:34;;;;;;;126.22;55.80;;;16.00;73.90;;;;;;5048677;28;20061;-46
2023/12/13 00:34:00;;;;;;;125.03;56.33;;;16.00;74.00;;;;;;5050469;28;20478;-47
2023/12/13 00:36:26;;;;;;;126.60;56.90;;;16.00;74.00;;;;;;5061353;28;20044;-47
2023/12/13 00:38:51;;;;;;;124.93;56.40;;;16.00;74.00;;;;;;5055019;28;20114;-46
2023/12/13 00:41:17;;;;;;;125.72;56.50;;;16.00;74.10;;;;;;5058271;28;20123;-47
2023/12/13 00:43:43;;;;;;;128.02;56.83;;;16.00;74.10;;;;;;5047515;28;20065;-47
2023/12/13 00:46:19;;;;;;;126.43;57.30;;;15.90;74.10;;;;;;5056675;28;20095;-47
2023/12/13 00:48:46;;;;;;;124.53;55.65;;;16.00;74.20;;;;;;5058842;28;20040;-46
2023/12/13 00:51:22;;;;;;;126.25;56.90;;;15.90;74.10;;;;;;5061209;28;20033;-47
2023/12/13 00:53:49;;;;;;;125.72;56.00;;;15.90;74.10;;;;;;5054141;28;20034;-46
2023/12/13 00:56:15;;;;;;;126.85;57.15;;;15.90;74.10;;;;;;5049358;28;20522;-47
2023/12/13 00:58:42;;;;;;;126.53;56.75;;;15.90;74.20;;;;;;5054701;28;20099;-47
2023/12/13 01:01:08;;;;;;;125.85;56.53;;;15.90;74.30;;;;;;5052240;28;20041;-47
2023/12/13 01:03:34;;;;;;;125.72;56.35;;;15.90;74.30;;;;;;5057597;28;20048;-47
2023/12/13 01:06:00;;;;;;;126.65;56.33;;;15.90;74.30;;;;;;5052864;28;20041;-47
2023/12/13 01:08:25;;;;;;;126.63;56.70;;;15.90;74.20;;;;;;5052116;28;20053;-47
2023/12/13 01:10:52;;;;;;;127.07;56.15;;;15.90;74.30;;;;;;5061096;28;20033;-47
2023/12/13 01:13:18;;;;;;;127.95;56.17;;;15.90;74.30;;;;;;5056235;28;20041;-46
2023/12/13 01:15:43;;;;;;;124.85;56.50;;;15.90;74.30;;;;;;5057019;28;20033;-47
2023/12/13 01:18:09;;;;;;;126.85;56.63;;;15.90;74.30;;;;;;5054346;28;20609;-46
2023/12/13 01:20:35;;;;;;;125.35;56.42;;;15.80;74.30;;;;;;5051015;28;21431;-46
2023/12/13 01:23:01;;;;;;;125.05;56.30;;;15.80;74.30;;;;;;5053342;28;20479;-46
2023/12/13 01:25:26;;;;;;;126.43;57.40;;;15.80;74.50;;;;;;5055226;28;20037;-46
2023/12/13 01:27:57;;;;;;;124.68;55.95;;;15.80;74.50;;;;;;5057331;28;20083;-47
2023/12/13 01:30:23;;;;;;;125.65;57.17;;;15.80;74.50;;;;;;5053439;28;20037;-47
2023/12/13 01:32:48;;;;;;;124.85;56.00;;;15.80;74.40;;;;;;5056051;28;20921;-47
2023/12/13 01:35:14;;;;;;;127.18;56.97;;;15.70;74.50;;;;;;5058829;28;20808;-46
2023/12/13 01:37:40;;;;;;;125.55;56.17;;;15.70;74.50;;;;;;5057192;28;20148;-47
2023/12/13 01:40:07;;;;;;;123.90;55.63;;;15.80;74.50;;;;;;5059452;28;20573;-47
2023/12/13 01:42:36;;;;;;;125.57;55.75;;;15.70;74.50;;;;;;5053600;28;20897;-46
2023/12/13 01:45:02;;;;;;;124.60;55.97;;;15.80;74.60;;;;;;5058564;28;20144;-45
2023/12/13 01:47:28;;;;;;;126.05;56.92;;;15.70;74.40;;;;;;5054952;28;20072;-45
2023/12/13 01:49:54;;;;;;;126.55;56.17;;;15.80;74.50;;;;;;5050825;28;20128;-46
2023/12/13 01:52:20;;;;;;;124.60;56.10;;;15.80;75.30;;;;;;5049952;28;20853;-43
2023/12/13 01:54:47;;;;;;;126.75;56.55;;;15.80;74.60;;;;;;5048615;28;20258;-42
2023/12/13 01:57:14;;;;;;;124.95;56.53;;;15.70;74.40;;;;;;5049389;28;20616;-38
2023/12/13 01:59:41;;;;;;;124.75;55.97;;;15.70;74.40;;;;;;5058764;28;20041;-39
2023/12/13 02:02:07;;;;;;;125.28;56.55;;;15.70;74.50;;;;;;5049283;28;20043;-44
2023/12/13 02:04:35;;;;;;;125.00;56.50;;;15.70;74.60;;;;;;5048362;28;20052;-40
2023/12/13 02:07:01;;;;;;;126.13;57.20;;;15.70;74.50;;;;;;5050503;28;20045;-44
2023/12/13 02:09:27;;;;;;;123.43;55.50;;;15.70;74.50;;;;;;5054132;28;20090;-43
2023/12/13 02:11:53;;;;;;;127.82;55.90;;;15.70;74.50;;;;;;5054603;28;20930;-40
2023/12/13 02:14:19;;;;;;;124.75;55.83;;;15.70;74.60;;;;;;5054495;28;20594;-39
2023/12/13 02:16:44;;;;;;;125.93;55.72;;;15.70;74.60;;;;;;5054876;28;20045;-42
2023/12/13 02:19:10;;;;;;;123.15;55.65;;;15.60;74.60;;;;;;5054786;28;20037;-42
2023/12/13 02:21:37;;;;;;;126.82;56.10;;;15.70;74.50;;;;;;5051505;28;20037;-46
2023/12/13 02:24:04;;;;;;;126.30;56.22;;;15.70;74.60;;;;;;5053127;28;20126;-43
2023/12/13 02:26:30;;;;;;;123.70;55.58;;;15.70;74.60;;;;;;5049712;28;20148;-44
2023/12/13 02:28:57;;;;;;;127.57;56.78;;;15.60;74.50;;;;;;5049181;28;20127;-40
2023/12/13 02:31:24;;;;;;;126.13;56.88;;;15.60;74.60;;;;;;5046704;28;20033;-41
2023/12/13 02:33:50;;;;;;;125.97;56.08;;;15.60;74.50;;;;;;5049797;28;20586;-44
2023/12/13 02:36:16;;;;;;;126.63;56.22;;;15.60;74.60;;;;;;5050889;28;20091;-43
2023/12/13 02:38:41;;;;;;;127.18;55.75;;;15.70;74.60;;;;;;5050336;28;20045;-45
2023/12/13 02:41:08;;;;;;;125.03;55.78;;;15.60;74.60;;;;;;5052260;28;20033;-41
2023/12/13 02:43:33;;;;;;;125.43;55.75;;;15.60;74.70;;;;;;5051315;28;20085;-47
2023/12/13 02:45:59;;;;;;;125.40;56.72;;;15.60;74.60;;;;;;5050744;28;20151;-40
2023/12/13 02:48:26;;;;;;;124.93;56.67;;;15.60;74.50;;;;;;5051920;28;20376;-41
2023/12/13 02:50:54;;;;;;;126.57;56.80;;;15.60;74.50;;;;;;5048364;28;20534;-42
2023/12/13 02:53:21;;;;;;;124.65;55.70;;;15.60;74.50;;;;;;5050690;28;20156;-43
2023/12/13 02:55:47;;;;;;;124.32;55.88;;;15.60;74.60;;;;;;5047865;28;20037;-40
2023/12/13 02:58:12;;;;;;;124.35;55.33;;;15.60;74.60;;;;;;5046349;28;20033;-41
2023/12/13 03:00:38;;;;;;;124.20;56.38;;;15.60;74.70;;;;;;5046923;28;20037;-40
2023/12/13 03:03:04;;;;;;;126.00;56.63;;;15.60;74.70;;;;;;5051839;28;20047;-44
2023/12/13 03:05:30;;;;;;;124.50;55.88;;;15.60;74.70;;;;;;5044873;28;20206;-43
2023/12/13 03:07:55;;;;;;;126.55;56.35;;;15.60;74.70;;;;;;5053375;28;20040;-43
2023/12/13 03:10:21;;;;;;;124.10;55.80;;;15.50;74.70;;;;;;5053676;28;20519;-43
2023/12/13 03:12:47;;;;;;;124.90;56.38;;;15.50;75.40;;;;;;5052039;28;20418;-39
2023/12/13 03:15:13;;;;;;;124.63;55.72;;;15.50;74.60;;;;;;5052562;28;20057;-46
2023/12/13 03:17:38;;;;;;;125.60;56.00;;;15.50;74.60;;;;;;5047305;28;20025;-45
2023/12/13 03:20:05;;;;;;;125.35;56.38;;;15.50;74.60;;;;;;5048160;28;20125;-44
2023/12/13 03:22:30;;;;;;;125.35;56.15;;;15.50;74.60;;;;;;5056880;28;20057;-42
2023/12/13 03:24:57;;;;;;;123.68;55.20;;;15.50;74.70;;;;;;5052452;28;20228;-41
2023/12/13 03:27:23;;;;;;;123.80;55.97;;;15.50;74.60;;;;;;5051723;28;20032;-40
2023/12/13 03:29:48;;;;;;;124.68;56.17;;;15.50;74.70;;;;;;5047607;28;20044;-41
2023/12/13 03:32:14;;;;;;;125.22;56.08;;;15.50;74.70;;;;;;5045905;28;20045;-44
2023/12/13 03:34:40;;;;;;;126.32;56.65;;;15.50;74.70;;;;;;5049848;28;20087;-42
2023/12/13 03:37:06;;;;;;;126.85;56.28;;;15.50;74.60;;;;;;5047789;28;20348;-43
2023/12/13 03:39:33;;;;;;;125.85;55.95;;;15.50;74.60;;;;;;5054625;28;20072;-40
2023/12/13 03:41:59;;;;;;;125.07;55.85;;;15.50;74.70;;;;;;5045340;28;20047;-39
2023/12/13 03:44:24;;;;;;;124.05;55.53;;;15.50;74.80;;;;;;5047428;28;20049;-43
2023/12/13 03:46:50;;;;;;;124.93;56.05;;;15.50;75.40;;;;;;5046834;28;20162;-38
2023/12/13 03:49:16;;;;;;;125.07;56.17;;;15.50;74.60;;;;;;5046661;28;20534;-43
2023/12/13 03:51:46;;;;;;;126.28;55.90;;;15.50;74.60;;;;;;5057652;28;20048;-40
2023/12/13 03:54:12;;;;;;;125.93;55.55;;;15.50;74.60;;;;;;5054493;28;20056;-40
2023/12/13 03:56:38;;;;;;;124.82;55.78;;;15.50;74.60;;;;;;5043432;28;20588;-43
2023/12/13 03:59:03;;;;;;;124.50;56.13;;;15.50;74.60;;;;;;5049935;28;20033;-41
2023/12/13 04:01:29;;;;;;;123.28;55.17;;;15.50;74.70;;;;;;5053573;28;20044;-43
2023/12/13 04:03:54;;;;;;;124.20;55.50;;;15.50;74.80;;;;;;5048715;28;20128;-42
2023/12/13 04:06:20;;;;;;;123.68;56.28;;;15.50;74.70;;;;;;5052124;28;20055;-41
2023/12/13 04:08:46;;;;;;;125.95;56.28;;;15.50;74.80;;;;;;5053009;28;20037;-43
2023/12/13 04:11:11;;;;;;;127.28;56.88;;;15.40;74.80;;;;;;5048066;28;20728;-41
2023/12/13 04:13:37;;;;;;;126.60;55.92;;;15.40;74.90;;;;;;5056165;28;20049;-37
2023/12/13 04:16:03;;;;;;;125.15;56.47;;;15.40;74.90;;;;;;5051637;28;20037;-43
2023/12/13 04:18:29;;;;;;;124.05;55.90;;;15.40;74.80;;;;;;5046582;28;20159;-41
2023/12/13 04:20:54;;;;;;;124.25;55.22;;;15.40;74.90;;;;;;5050554;28;20266;-39
2023/12/13 04:23:20;;;;;;;125.30;55.70;;;15.40;74.80;;;;;;5050199;28;20048;-40
2023/12/13 04:25:46;;;;;;;125.10;55.78;;;15.40;74.90;;;;;;5052639;28;20510;-40
2023/12/13 04:28:11;;;;;;;124.47;55.85;;;15.40;74.70;;;;;;5048207;28;20132;-38
2023/12/13 04:30:37;;;;;;;123.28;55.40;;;15.40;74.80;;;;;;5047476;28;20077;-46
2023/12/13 04:33:03;;;;;;;125.68;55.88;;;15.40;74.70;;;;;;5050495;28;20112;-39
2023/12/13 04:35:28;;;;;;;123.25;55.40;;;15.40;74.80;;;;;;5049744;28;20032;-40
2023/12/13 04:37:54;;;;;;;125.32;56.15;;;15.40;74.80;;;;;;5051993;28;20094;-39
2023/12/13 04:40:20;;;;;;;124.35;56.10;;;15.40;75.00;;;;;;5049419;28;20047;-40
2023/12/13 04:42:45;;;;;;;125.40;55.75;;;15.40;75.00;;;;;;5043378;28;20207;-39
2023/12/13 04:45:11;;;;;;;124.80;55.95;;;15.40;74.90;;;;;;5050091;28;20192;-42
2023/12/13 04:47:37;;;;;;;125.55;55.63;;;15.40;74.90;;;;;;5044121;28;20037;-41
2023/12/13 04:50:03;;;;;;;124.20;56.10;;;15.40;75.00;;;;;;5052571;28;20045;-44
2023/12/13 04:52:29;;;;;;;124.53;55.85;;;15.40;74.90;;;;;;5053072;28;20037;-41
2023/12/13 04:54:54;;;;;;;124.38;55.88;;;15.40;74.90;;;;;;5049355;28;20042;-42
2023/12/13 04:57:20;;;;;;;124.75;55.85;;;15.40;75.00;;;;;;5049405;28;20060;-40
2023/12/13 04:59:46;;;;;;;123.50;55.58;;;15.40;75.00;;;;;;5038806;28;20144;-42
2023/12/13 05:02:11;;;;;;;124.25;55.80;;;15.30;74.90;;;;;;5043964;28;20064;-38
2023/12/13 05:04:37;;;;;;;126.60;55.70;;;15.30;75.00;;;;;;5052317;28;20042;-40
2023/12/13 05:07:03;;;;;;;124.95;56.35;;;15.30;75.80;;;;;;5046789;28;20763;-42
2023/12/13 05:09:28;;;;;;;124.40;56.20;;;15.30;75.00;;;;;;5044192;28;20037;-45
2023/12/13 05:11:54;;;;;;;124.05;55.65;;;15.30;75.10;;;;;;5042155;28;20616;-41
2023/12/13 05:14:19;;;;;;;127.38;55.85;;;15.30;75.10;;;;;;5048391;28;20636;-45
2023/12/13 05:16:45;;;;;;;125.97;55.40;;;15.30;75.20;;;;;;5052067;28;20586;-38
2023/12/13 05:19:11;;;;;;;125.57;55.83;;;15.40;75.30;;;;;;5053107;28;20044;-40
2023/12/13 05:21:36;;;;;;;125.88;55.53;;;15.30;75.40;;;;;;5050199;28;20041;-40
2023/12/13 05:24:02;;;;;;;125.65;56.22;;;15.30;75.30;;;;;;5054522;28;20148;-46
2023/12/13 05:26:28;;;;;;;126.72;56.60;;;15.30;75.30;;;;;;5047062;28;20316;-41
2023/12/13 05:28:54;;;;;;;126.18;55.58;;;15.30;75.30;;;;;;5050572;28;20927;-38
2023/12/13 05:31:20;;;;;;;126.55;56.78;;;15.30;75.40;;;;;;5045015;28;20053;-38
2023/12/13 05:33:47;;;;;;;127.18;56.45;;;15.30;75.60;;;;;;5057000;28;20071;-39
2023/12/13 05:36:12;;;;;;;125.43;55.80;;;15.30;75.50;;;;;;5053618;28;20045;-38
2023/12/13 05:38:38;;;;;;;125.05;55.13;;;15.30;75.30;;;;;;5048745;28;20047;-42
2023/12/13 05:41:04;;;;;;;124.22;55.85;;;15.30;75.30;;;;;;5050290;28;20160;-40
2023/12/13 05:43:30;;;;;;;124.25;55.85;;;15.40;75.40;;;;;;5051558;28;20045;-39
2023/12/13 05:45:56;;;;;;;124.40;55.50;;;15.30;76.10;;;;;;5051695;28;20025;-43
2023/12/13 05:48:21;;;;;;;127.53;55.72;;;15.30;75.40;;;;;;5048631;28;20610;-39
2023/12/13 05:50:47;;;;;;;124.60;55.72;;;15.30;75.60;;;;;;5053896;28;20152;-42
2023/12/13 05:53:13;;;;;;;124.90;55.70;;;15.30;75.60;;;;;;5049691;28;20041;-39
2023/12/13 05:55:38;;;;;;;126.05;55.78;;;15.30;75.50;;;;;;5056704;28;20034;-42
2023/12/13 05:58:04;;;;;;;123.75;55.28;;;15.30;75.50;;;;;;5056381;28;20042;-40
2023/12/13 06:00:31;;;;;;;123.50;55.30;;;15.30;75.80;;;;;;5056940;28;20099;-45
2023/12/13 06:02:58;;;;;;;126.38;56.33;;;15.20;75.60;;;;;;5048034;28;20077;-38
2023/12/13 06:05:24;;;;;;;125.07;56.33;;;15.30;75.80;;;;;;5045354;28;20052;-43
2023/12/13 06:07:50;;;;;;;125.03;56.13;;;15.30;75.70;;;;;;5054247;28;20045;-41
2023/12/13 06:10:16;;;;;;;125.07;56.20;;;15.30;76.10;;;;;;5048338;28;20873;-38
2023/12/13 06:12:41;;;;;;;124.70;55.75;;;15.30;75.90;;;;;;5050470;28;20123;-40
2023/12/13 06:15:07;;;;;;;123.70;55.42;;;15.30;76.20;;;;;;5045972;28;20044;-42
2023/12/13 06:17:33;;;;;;;128.15;56.15;;;15.30;76.10;;;;;;5042515;28;20053;-40
2023/12/13 06:20:00;;;;;;;134.13;55.83;;;15.30;76.30;;;;;;5047061;28;20076;-43
2023/12/13 06:22:26;;;;;;;132.73;56.25;;;15.40;76.60;;;;;;5044355;28;20045;-41
2023/12/13 06:24:52;;;;;;;131.23;56.08;;;15.40;76.70;;;;;;5053922;28;20076;-41
2023/12/13 06:27:17;;;;;;;128.63;55.92;;;15.40;76.60;;;;;;5053610;28;20057;-42
2023/12/13 06:29:43;;;;;;;128.30;56.03;;;15.40;76.70;;;;;;5052845;28;20045;-40
2023/12/13 06:32:09;;;;;;;129.38;57.03;;;15.40;77.30;;;;;;5050301;28;20029;-39
2023/12/13 06:34:35;;;;;;;124.65;55.35;;;15.40;76.90;;;;;;5056737;28;20037;-38
2023/12/13 06:37:00;;;;;;;126.63;56.00;;;15.40;76.70;;;;;;5050805;28;20087;-38
2023/12/13 06:39:26;;;;;;;124.85;56.17;;;15.30;76.70;;;;;;5046808;28;20037;-41
2023/12/13 06:41:52;;;;;;;127.03;56.00;;;15.30;76.80;;;;;;5049260;28;20103;-42
2023/12/13 06:44:17;;;;;;;130.50;55.60;;;15.30;77.00;;;;;;5050488;28;20545;-38
2023/12/13 06:46:43;;;;;;;126.85;56.63;;;15.40;77.10;;;;;;5045677;28;20927;-42
2023/12/13 06:49:09;;;;;;;126.60;55.60;;;15.40;77.20;;;;;;5056977;28;20759;-45
2023/12/13 06:51:36;;;;;;;126.43;56.55;;;15.40;77.30;;;;;;5053484;28;20774;-40
2023/12/13 06:54:02;;;;;;;128.95;56.20;;;15.30;77.20;;;;;;5052107;28;20048;-42
2023/12/13 06:56:28;;;;;;;124.85;56.03;;;15.30;77.00;;;;;;5053420;28;20033;-42
2023/12/13 06:58:53;;;;;;;125.38;56.13;;;15.30;77.00;;;;;;5046282;28;20044;-43
2023/12/13 07:01:20;;;;;;;125.63;56.63;;;15.30;77.10;;;;;;5046463;28;20531;-41
2023/12/13 07:03:46;;;;;;;128.82;56.47;;;15.30;77.30;;;;;;5050755;28;20494;-40
2023/12/13 07:06:16;;;;;;;128.88;56.70;;;15.30;77.30;;;;;;5051264;28;20060;-44
2023/12/13 07:08:42;;;;;;;130.35;56.20;;;15.30;77.00;;;;;;5045008;28;20046;-38
2023/12/13 07:11:07;;;;;;;125.95;56.92;;;15.30;77.20;;;;;;5047170;28;20037;-45
2023/12/13 07:13:33;;;;;;;128.70;56.33;;;15.30;77.10;;;;;;5053329;28;20059;-38
2023/12/13 07:15:59;;;;;;;126.63;55.80;;;15.30;77.20;;;;;;5050900;28;20049;-40
2023/12/13 07:18:25;;;;;;;127.40;56.08;;;15.20;77.20;;;;;;5051561;28;20034;-38
2023/12/13 07:20:51;;;;;;;126.07;56.25;;;15.20;77.30;;;;;;5049861;28;20041;-40
2023/12/13 07:23:17;;;;;;;126.65;55.80;;;15.30;77.10;;;;;;5051786;28;20044;-43
2023/12/13 07:25:43;;;;;;;126.22;56.40;;;15.30;77.00;;;;;;5055286;28;20074;-42
2023/12/13 07:28:10;;;;;;;128.20;56.92;;;15.30;77.10;;;;;;5051241;28;20040;-40
2023/12/13 07:30:36;;;;;;;128.93;56.72;;;15.20;77.20;;;;;;5043804;28;20139;-40
2023/12/13 07:33:03;;;;;;;130.57;56.65;;;15.30;77.50;;;;;;5055529;28;20351;-40
2023/12/13 07:35:28;;;;;;;127.07;56.83;;;15.30;78.30;;;;;;5052475;28;20052;-39
2023/12/13 07:37:55;;;;;;;126.00;55.63;;;15.30;77.30;;;;;;5056507;28;20033;-42
2023/12/13 07:40:20;;;;;;;125.95;56.25;;;15.30;77.20;;;;;;5047728;28;20037;-41
2023/12/13 07:42:47;;;;;;;135.05;56.40;;;15.30;77.10;;;;;;5049689;28;20060;-39
2023/12/13 07:45:13;;;;;;;125.63;55.35;;;15.30;77.00;;;;;;5051237;28;20187;-44
2023/12/13 07:47:39;;;;;;;128.18;56.50;;;15.30;77.20;;;;;;5047665;28;20101;-42
2023/12/13 07:50:06;;;;;;;127.85;56.35;;;15.20;77.20;;;;;;5044954;28;20605;-44
2023/12/13 07:52:32;;;;;;;126.22;56.28;;;15.20;77.10;;;;;;5054580;28;20108;-37
2023/12/13 07:54:58;;;;;;;125.63;56.88;;;15.20;77.10;;;;;;5051027;28;20107;-36
2023/12/13 07:57:23;;;;;;;129.73;56.90;;;15.20;77.00;;;;;;5049128;28;20042;-38
2023/12/13 07:59:49;;;;;;;128.18;55.88;;;15.20;77.00;;;;;;5045549;28;20404;-37
2023/12/13 08:02:15;;;;;;;126.82;56.10;;;15.20;77.00;;;;;;5046741;28;20144;-37
2023/12/13 08:04:41;;;;;;;126.43;56.75;;;15.20;77.00;;;;;;5041315;28;20584;-36
2023/12/13 08:07:07;;;;;;;125.85;55.63;;;15.30;77.30;;;;;;5044721;28;20860;-37
2023/12/13 08:09:32;;;;;;;125.25;56.58;;;15.50;77.50;;;;;;5040787;28;20096;-38
2023/12/13 08:11:58;;;;;;;130.35;56.30;;;15.70;76.60;;;;;;5044906;28;20034;-37
2023/12/13 08:14:30;;;;;;;124.22;56.05;;;15.70;75.90;;;;;;5051996;28;20111;-37
2023/12/13 08:16:55;;;;;;;;;;;15.70;75.50;;;;;;5050811;28;20044;-38
2023/12/13 08:19:21;;;;;;;125.50;56.40;;;15.80;75.30;;;;;;5047123;28;20039;-38
2023/12/13 08:21:47;;;;;;;126.95;56.13;;;15.80;75.00;;;;;;5043317;28;20041;-39
2023/12/13 08:24:13;;;;;;;133.23;57.38;;;15.80;75.00;;;;;;5050294;28;20071;-39
2023/12/13 08:26:38;;;;;;;128.18;57.28;;;15.90;75.30;;;;;;5043070;28;20060;-37
2023/12/13 08:29:04;;;;;;;128.10;56.28;;;15.90;75.20;;;;;;5035345;28;21077;-37
2023/12/13 08:31:30;;;;;;;132.40;56.13;;;15.90;75.50;;;;;;5050739;28;20060;-39
2023/12/13 08:33:56;;;;;;;130.30;58.42;;;15.90;75.50;;;;;;5037779;28;20223;-41
2023/12/13 08:36:22;;;;;;;132.02;56.42;;;16.00;75.70;;;;;;5038275;28;20047;-38
2023/12/13 08:38:48;;;;;;;127.80;56.28;;;16.00;75.00;;;;;;5045399;28;20122;-37
2023/12/13 08:41:15;;;;;;;128.95;56.97;;;16.00;75.10;;;;;;5047262;28;20128;-38
2023/12/13 08:43:40;;;;;;;125.53;55.80;;;16.00;75.00;;;;;;5047107;28;20057;-37
2023/12/13 08:46:07;;;;;;;132.93;56.88;;;16.00;74.60;;;;;;5045329;28;20041;-37
2023/12/13 08:48:32;;;;;;;126.35;56.33;;;16.00;74.80;;;;;;5045610;28;20041;-38
2023/12/13 08:50:59;;;;;;;130.02;57.10;;;16.00;74.60;;;;;;5044270;28;20056;-39
2023/12/13 08:53:25;;;;;;;126.90;55.88;;;16.00;73.90;;;;;;5053727;28;20045;-38
2023/12/13 08:55:51;;;;;;;130.57;56.90;;;16.00;74.10;;;;;;5047655;28;21139;-39
2023/12/13 08:58:16;;;;;;;129.88;57.05;;;16.10;73.90;;;;;;5050295;28;20040;-38
2023/12/13 09:00:42;;;;;;;129.20;56.88;;;16.10;73.90;;;;;;5043730;28;20051;-40
2023/12/13 09:03:08;;;;;;;127.43;56.53;;;16.10;74.00;;;;;;5052260;28;20071;-40
2023/12/13 09:05:37;;;;;;;128.00;56.55;;;16.10;74.00;;;;;;5052513;28;20044;-42
2023/12/13 09:08:06;;;;;;;130.88;57.03;;;16.10;73.90;;;;;;5053348;28;20041;-40
2023/12/13 09:10:34;;;;;;;128.57;56.42;;;16.10;73.90;;;;;;5054356;28;20033;-48
2023/12/13 09:13:02;;;;;;;131.70;57.92;;;16.20;73.80;;;;;;5051193;28;20049;-44
2023/12/13 09:15:28;;;;;;;142.95;57.05;;;16.20;73.50;;;;;;5046052;28;20151;-40
2023/12/13 09:17:53;;;;;;;128.68;56.53;;;16.20;73.70;;;;;;5055019;28;20796;-38
2023/12/13 09:20:19;;;;;;;130.55;56.80;;;16.20;73.30;;;;;;5055808;28;20113;-38
2023/12/13 09:22:45;;;;;;;129.38;56.45;;;16.20;73.10;;;;;;5050429;28;20039;-38
2023/12/13 09:25:16;;;;;;;132.38;56.63;;;16.20;72.90;;;;;;5049902;28;20080;-38
2023/12/13 09:27:42;;;;;;;;;;;16.20;72.90;;;;;;5048803;28;20033;-39
2023/12/13 09:30:11;;;;;;;128.50;56.50;;;16.10;72.70;;;;;;5046522;28;19916;-42
2023/12/13 09:32:38;;;;;;;128.25;56.42;;;16.20;72.90;;;;;;5054135;28;21909;-39
2023/12/13 09:35:04;;;;;;;128.63;57.20;;;16.20;73.00;;;;;;5047669;28;20052;-37
2023/12/13 09:37:30;;;;;;;130.10;58.83;;;16.30;73.20;;;;;;5050270;28;20113;-40
2023/12/13 09:39:56;;;;;;;130.20;58.55;;;16.30;73.30;;;;;;5045570;28;20037;-38
2023/12/13 09:42:23;;;;;;;131.48;59.30;;;16.40;73.30;;;;;;5049407;28;20612;-38
2023/12/13 09:44:49;;;;;;;132.20;59.70;;;16.50;73.50;;;;;;5052134;28;20040;-38
2023/12/13 09:47:17;;;;;;;130.60;60.38;;;16.50;73.50;;;;;;5054366;28;21026;-42
2023/12/13 09:49:44;;;;;;;134.82;60.53;;;16.60;73.50;;;;;;5054580;28;20094;-40
2023/12/13 09:52:11;;;;;;;132.32;61.05;;;16.70;73.30;;;;;;5047814;28;20041;-45
2023/12/13 09:54:40;;;;;;;133.27;61.67;;;16.80;73.30;;;;;;5047196;28;20164;-39
2023/12/13 09:57:06;;;;;;;133.45;60.58;;;16.80;73.00;;;;;;5052808;28;20175;-45
2023/12/13 09:59:32;;;;;;;132.75;61.30;;;16.90;72.90;;;;;;5050354;28;20113;-40
2023/12/13 10:01:58;;;;;;;135.80;61.72;;;16.90;72.70;;;;;;5051501;28;20837;-40
2023/12/13 10:04:27;;;;;;;133.68;60.50;;;17.00;72.80;;;;;;5053471;28;20122;-45
2023/12/13 10:06:53;;;;;;;134.75;61.30;;;17.00;72.60;;;;;;5044568;28;20115;-42
2023/12/13 10:09:19;;;;;;;133.45;61.53;;;17.00;72.60;;;;;;5046166;28;20515;-40
2023/12/13 10:11:45;;;;;;;134.57;60.50;;;17.10;72.60;;;;;;5055675;28;20040;-37
2023/12/13 10:14:11;;;;;;;132.48;61.45;;;17.10;72.50;;;;;;5051467;28;20041;-39
2023/12/13 10:16:38;;;;;;;136.75;62.95;;;17.10;72.40;;;;;;5049234;28;21061;-40
2023/12/13 10:19:06;;;;;;;139.70;66.78;;;17.10;72.60;;;;;;5046528;28;20033;-36
2023/12/13 10:21:35;;;;;;;143.88;68.70;;;17.10;72.60;;;;;;5048152;28;20194;-47
2023/12/13 10:24:04;;;;;;;146.52;70.40;;;17.10;72.10;;;;;;5047651;28;20879;-40
2023/12/13 10:26:35;;;;;;;146.27;71.40;;;17.30;72.50;;;;;;5045743;28;20033;-37
2023/12/13 10:29:01;;;;;;;145.75;71.68;;;17.30;71.20;;;;;;5050819;28;21057;-41
2023/12/13 10:31:27;;;;;;;147.27;71.70;;;17.40;70.90;;;;;;5051597;28;20065;-44
2023/12/13 10:33:53;;;;;;;145.77;71.10;;;17.50;70.80;;;;;;5054997;28;20916;-36
2023/12/13 10:36:20;;;;;;;147.68;69.45;;;17.50;70.80;;;;;;5052717;28;20033;-39
2023/12/13 10:38:52;;;;;;;151.38;68.78;;;17.60;70.30;;;;;;5051690;28;20033;-38
2023/12/13 10:41:27;;;;;;;145.27;69.25;;;17.60;70.40;;;;;;5054733;28;20604;-39
2023/12/13 10:43:57;;;;;;;142.00;68.10;;;17.70;70.60;;;;;;5054852;28;20049;-35
2023/12/13 10:46:26;;;;;;;146.32;70.50;;;17.70;70.60;;;;;;5051438;28;20502;-37
2023/12/13 10:48:52;;;;;;;143.70;69.70;;;17.80;70.10;;;;;;5054378;28;20801;-35
2023/12/13 10:51:19;;;;;;;141.50;68.82;;;17.80;70.00;;;;;;5048752;28;20065;-42
2023/12/13 10:53:47;;;;;;;140.48;67.72;;;17.90;69.90;;;;;;5040737;28;20123;-41
2023/12/13 10:56:14;;;;;;;145.45;66.90;;;17.90;69.60;;;;;;5046231;28;20033;-40
2023/12/13 10:58:47;;;;;;;141.77;67.90;;;17.90;69.60;;;;;;5043285;28;20041;-38
2023/12/13 11:01:14;;;;;;;146.68;65.80;;;17.90;69.70;;;;;;5047748;28;20049;-41
2023/12/13 11:03:57;;;;;;;140.27;64.93;;;18.00;69.60;;;;;;5052183;28;20095;-40
2023/12/13 11:06:26;;;;;;;139.07;65.07;;;18.00;69.20;;;;;;5054434;28;20159;-46
2023/12/13 11:08:53;;;;;;;140.52;65.45;;;18.00;68.90;;;;;;5054065;28;20026;-38
2023/12/13 11:11:27;;;;;;;138.70;64.63;;;18.00;68.90;;;;;;5045250;28;20061;-39
2023/12/13 11:13:54;;;;;;;139.32;65.32;;;18.10;69.00;;;;;;5037361;28;20046;-39
2023/12/13 11:16:28;;;;;;;140.73;64.95;;;18.10;68.80;;;;;;5043876;28;20396;-37
2023/12/13 11:18:57;;;;;;;137.73;63.22;;;18.10;68.90;;;;;;5046445;28;20075;-44
2023/12/13 11:21:32;;;;;;;137.25;63.65;;;18.10;68.90;;;;;;5051668;28;20551;-40
2023/12/13 11:24:23;;;;;;;137.88;64.03;;;18.20;69.20;;;;;;5050161;28;20037;-38
2023/12/13 11:26:52;;;;;;;140.32;63.67;;;18.20;69.50;;;;;;5046586;28;20036;-39
2023/12/13 11:29:21;;;;;;;137.43;63.17;;;18.20;69.00;;;;;;5046509;28;20029;-36
2023/12/13 11:32:04;;;;;;;136.07;63.03;;;18.20;68.80;;;;;;5049284;28;20636;-39
2023/12/13 11:34:36;;;;;;;138.10;62.83;;;18.20;68.80;;;;;;5047688;28;20044;-39
2023/12/13 11:37:06;;;;;;;138.15;63.03;;;18.20;68.40;;;;;;5046473;28;20040;-43
2023/12/13 11:39:34;;;;;;;142.27;62.37;;;18.20;68.50;;;;;;5041603;28;20466;-39
2023/12/13 11:42:02;;;;;;;136.45;62.03;;;18.20;68.50;;;;;;5049203;28;20037;-39
2023/12/13 11:44:29;;;;;;;139.05;63.08;;;18.30;68.20;;;;;;5050636;28;20633;-42
2023/12/13 11:46:56;;;;;;;138.05;62.58;;;18.30;68.00;;;;;;5044949;28;20041;-39
2023/12/13 11:49:22;;;;;;;137.73;62.05;;;18.30;68.70;;;;;;5040883;28;20041;-37
2023/12/13 11:51:48;;;;;;;138.98;62.58;;;18.30;68.00;;;;;;5049023;28;20091;-37
2023/12/13 11:54:14;;;;;;;136.52;62.08;;;18.30;68.30;;;;;;5046687;28;20108;-40
2023/12/13 11:56:43;;;;;;;136.32;62.10;;;18.40;68.50;;;;;;5050275;28;20124;-41
2023/12/13 11:59:09;;;;;;;136.52;61.78;;;18.40;68.70;;;;;;5047479;28;20100;-38
2023/12/13 12:01:35;;;;;;;135.10;61.38;;;18.30;69.10;;;;;;5035737;28;20098;-38
2023/12/13 12:04:01;;;;;;;137.18;61.65;;;18.30;69.40;;;;;;5047994;28;20972;-40
2023/12/13 12:06:27;;;;;;;136.00;61.42;;;18.30;69.20;;;;;;5041136;28;20060;-38
2023/12/13 12:08:53;;;;;;;136.15;61.00;;;18.20;69.10;;;;;;5044949;28;20140;-40
2023/12/13 12:11:20;;;;;;;137.95;61.25;;;18.20;69.00;;;;;;5043812;28;20049;-43
2023/12/13 12:13:45;;;;;;;135.52;61.45;;;18.20;68.80;;;;;;5039895;28;20041;-39
2023/12/13 12:16:11;;;;;;;135.43;60.88;;;18.20;68.70;;;;;;5046789;28;20102;-42